sensor_id;sensor_type;location;lat;lon;timestamp;temperature;humidity
84298;DHT22;74466;51.188;3.242;2024-03-23T00:53:08;8.20;88.40
84298;DHT22;74466;51.188;3.242;2024-03-23T00:55:34;8.20;88.30
84298;DHT22;74466;51.188;3.242;2024-03-23T00:57:59;8.20;88.50
84298;DHT22;74466;51.188;3.242;2024-03-23T01:00:25;8.10;88.50
84298;DHT22;74466;51.188;3.242;2024-03-23T01:02:51;8.10;88.60
84298;DHT22;74466;51.188;3.242;2024-03-23T01:05:17;8.00;88.10
84298;DHT22;74466;51.188;3.242;2024-03-23T01:07:43;8.00;87.20
84298;DHT22;74466;51.188;3.242;2024-03-23T01:10:09;8.00;86.60
84298;DHT22;74466;51.188;3.242;2024-03-23T01:12:34;7.90;86.50
84298;DHT22;74466;51.188;3.242;2024-03-23T01:15:00;7.90;87.00
84298;DHT22;74466;51.188;3.242;2024-03-23T01:17:26;7.90;86.40
84298;DHT22;74466;51.188;3.242;2024-03-23T01:19:51;7.80;86.90
84298;DHT22;74466;51.188;3.242;2024-03-23T01:22:18;7.80;88.80
84298;DHT22;74466;51.188;3.242;2024-03-23T01:24:43;7.70;89.50
84298;DHT22;74466;51.188;3.242;2024-03-23T01:27:09;7.60;88.10
84298;DHT22;74466;51.188;3.242;2024-03-23T01:29:35;7.60;89.90
84298;DHT22;74466;51.188;3.242;2024-03-23T01:32:01;7.60;89.00
84298;DHT22;74466;51.188;3.242;2024-03-23T01:34:26;7.60;89.30
84298;DHT22;74466;51.188;3.242;2024-03-23T01:36:53;7.60;89.30
84298;DHT22;74466;51.188;3.242;2024-03-23T01:39:19;7.50;90.30
84298;DHT22;74466;51.188;3.242;2024-03-23T01:41:45;7.50;90.90
84298;DHT22;74466;51.188;3.242;2024-03-23T01:44:10;7.50;90.80
84298;DHT22;74466;51.188;3.242;2024-03-23T01:46:37;7.40;91.20
84298;DHT22;74466;51.188;3.242;2024-03-23T01:49:04;7.30;91.10
84298;DHT22;74466;51.188;3.242;2024-03-23T01:51:30;7.30;91.30
84298;DHT22;74466;51.188;3.242;2024-03-23T01:53:57;7.30;91.20
84298;DHT22;74466;51.188;3.242;2024-03-23T01:56:26;7.20;91.40
84298;DHT22;74466;51.188;3.242;2024-03-23T01:58:52;7.20;91.30
84298;DHT22;74466;51.188;3.242;2024-03-23T02:01:17;7.20;91.60
84298;DHT22;74466;51.188;3.242;2024-03-23T02:03:44;7.20;91.50
84298;DHT22;74466;51.188;3.242;2024-03-23T02:06:10;7.10;91.60
84298;DHT22;74466;51.188;3.242;2024-03-23T02:08:36;7.00;91.40
84298;DHT22;74466;51.188;3.242;2024-03-23T02:11:02;7.00;91.30
84298;DHT22;74466;51.188;3.242;2024-03-23T02:13:27;7.00;91.40
84298;DHT22;74466;51.188;3.242;2024-03-23T02:15:53;7.00;92.10
84298;DHT22;74466;51.188;3.242;2024-03-23T02:18:19;6.90;91.50
84298;DHT22;74466;51.188;3.242;2024-03-23T02:20:44;6.80;91.40
84298;DHT22;74466;51.188;3.242;2024-03-23T02:23:14;6.80;91.70
84298;DHT22;74466;51.188;3.242;2024-03-23T02:25:40;6.70;91.60
84298;DHT22;74466;51.188;3.242;2024-03-23T02:28:05;6.70;92.30
84298;DHT22;74466;51.188;3.242;2024-03-23T02:30:31;6.70;91.70
84298;DHT22;74466;51.188;3.242;2024-03-23T02:32:57;6.60;91.20
84298;DHT22;74466;51.188;3.242;2024-03-23T02:35:22;6.60;91.40
84298;DHT22;74466;51.188;3.242;2024-03-23T02:37:48;6.50;91.50
84298;DHT22;74466;51.188;3.242;2024-03-23T02:40:17;6.50;91.50
84298;DHT22;74466;51.188;3.242;2024-03-23T02:42:43;6.50;91.20
84298;DHT22;74466;51.188;3.242;2024-03-23T02:45:09;6.60;90.90
84298;DHT22;74466;51.188;3.242;2024-03-23T02:47:35;6.60;90.90
84298;DHT22;74466;51.188;3.242;2024-03-23T02:50:00;6.60;90.80
84298;DHT22;74466;51.188;3.242;2024-03-23T02:52:26;6.50;90.50
84298;DHT22;74466;51.188;3.242;2024-03-23T02:54:52;6.60;90.70
84298;DHT22;74466;51.188;3.242;2024-03-23T02:57:18;6.50;90.60
84298;DHT22;74466;51.188;3.242;2024-03-23T02:59:44;6.70;90.40
84298;DHT22;74466;51.188;3.242;2024-03-23T03:02:09;6.70;89.70
84298;DHT22;74466;51.188;3.242;2024-03-23T03:04:35;6.70;90.40
84298;DHT22;74466;51.188;3.242;2024-03-23T03:07:01;6.80;90.20
84298;DHT22;74466;51.188;3.242;2024-03-23T03:09:26;6.80;90.00
84298;DHT22;74466;51.188;3.242;2024-03-23T03:11:52;6.90;90.00
84298;DHT22;74466;51.188;3.242;2024-03-23T03:14:17;7.00;90.00
84298;DHT22;74466;51.188;3.242;2024-03-23T03:16:43;7.00;90.20
84298;DHT22;74466;51.188;3.242;2024-03-23T03:19:09;7.10;90.00
84298;DHT22;74466;51.188;3.242;2024-03-23T03:21:36;7.10;90.00
84298;DHT22;74466;51.188;3.242;2024-03-23T03:24:02;7.20;90.10
84298;DHT22;74466;51.188;3.242;2024-03-23T03:26:28;7.30;88.90
84298;DHT22;74466;51.188;3.242;2024-03-23T03:28:53;7.40;89.20
84298;DHT22;74466;51.188;3.242;2024-03-23T03:31:19;7.50;88.70
84298;DHT22;74466;51.188;3.242;2024-03-23T03:33:45;7.60;89.00
84298;DHT22;74466;51.188;3.242;2024-03-23T03:36:11;7.60;89.60
84298;DHT22;74466;51.188;3.242;2024-03-23T03:38:37;7.50;89.50
84298;DHT22;74466;51.188;3.242;2024-03-23T03:41:04;7.60;89.50
84298;DHT22;74466;51.188;3.242;2024-03-23T03:43:31;7.60;89.60
84298;DHT22;74466;51.188;3.242;2024-03-23T03:45:58;7.60;89.60
84298;DHT22;74466;51.188;3.242;2024-03-23T03:48:24;7.70;89.50
84298;DHT22;74466;51.188;3.242;2024-03-23T03:50:51;7.70;89.10
84298;DHT22;74466;51.188;3.242;2024-03-23T03:53:17;7.60;90.00
84298;DHT22;74466;51.188;3.242;2024-03-23T03:55:42;7.50;90.00
84298;DHT22;74466;51.188;3.242;2024-03-23T03:58:08;7.50;90.30
84298;DHT22;74466;51.188;3.242;2024-03-23T04:00:34;7.50;90.80
84298;DHT22;74466;51.188;3.242;2024-03-23T04:03:01;7.50;90.40
84298;DHT22;74466;51.188;3.242;2024-03-23T04:05:26;7.60;90.50
84298;DHT22;74466;51.188;3.242;2024-03-23T04:07:53;7.70;90.10
84298;DHT22;74466;51.188;3.242;2024-03-23T04:10:19;7.60;89.10
84298;DHT22;74466;51.188;3.242;2024-03-23T04:12:45;7.70;88.70
84298;DHT22;74466;51.188;3.242;2024-03-23T04:15:11;7.60;88.00
84298;DHT22;74466;51.188;3.242;2024-03-23T04:17:37;7.70;88.40
84298;DHT22;74466;51.188;3.242;2024-03-23T04:20:03;7.70;87.80
84298;DHT22;74466;51.188;3.242;2024-03-23T04:22:33;7.70;87.10
84298;DHT22;74466;51.188;3.242;2024-03-23T04:24:59;7.70;87.30
84298;DHT22;74466;51.188;3.242;2024-03-23T04:27:25;7.70;87.00
84298;DHT22;74466;51.188;3.242;2024-03-23T04:29:51;7.70;87.30
84298;DHT22;74466;51.188;3.242;2024-03-23T04:32:18;7.70;86.30
84298;DHT22;74466;51.188;3.242;2024-03-23T04:34:44;7.80;86.60
84298;DHT22;74466;51.188;3.242;2024-03-23T04:37:11;7.80;86.00
84298;DHT22;74466;51.188;3.242;2024-03-23T04:39:37;7.80;86.10
84298;DHT22;74466;51.188;3.242;2024-03-23T04:42:03;7.80;85.70
84298;DHT22;74466;51.188;3.242;2024-03-23T04:44:29;7.80;86.10
84298;DHT22;74466;51.188;3.242;2024-03-23T04:46:56;7.80;85.70
84298;DHT22;74466;51.188;3.242;2024-03-23T04:49:22;7.80;86.30
84298;DHT22;74466;51.188;3.242;2024-03-23T04:51:48;7.80;84.90
84298;DHT22;74466;51.188;3.242;2024-03-23T04:54:13;7.80;84.10
84298;DHT22;74466;51.188;3.242;2024-03-23T04:56:39;7.80;83.50
84298;DHT22;74466;51.188;3.242;2024-03-23T04:59:05;7.80;83.10
84298;DHT22;74466;51.188;3.242;2024-03-23T05:01:31;7.80;82.80
84298;DHT22;74466;51.188;3.242;2024-03-23T05:03:57;7.80;83.10
84298;DHT22;74466;51.188;3.242;2024-03-23T05:06:26;7.80;83.20
84298;DHT22;74466;51.188;3.242;2024-03-23T05:08:52;7.80;82.60
84298;DHT22;74466;51.188;3.242;2024-03-23T05:11:18;7.80;82.70
84298;DHT22;74466;51.188;3.242;2024-03-23T05:13:44;7.80;84.30
84298;DHT22;74466;51.188;3.242;2024-03-23T05:16:09;7.70;83.70
84298;DHT22;74466;51.188;3.242;2024-03-23T05:18:35;7.80;83.70
84298;DHT22;74466;51.188;3.242;2024-03-23T05:21:01;7.80;84.40
84298;DHT22;74466;51.188;3.242;2024-03-23T05:23:28;7.80;84.60
84298;DHT22;74466;51.188;3.242;2024-03-23T05:25:55;7.80;84.30
84298;DHT22;74466;51.188;3.242;2024-03-23T05:28:21;7.80;84.30
84298;DHT22;74466;51.188;3.242;2024-03-23T05:30:54;7.80;83.20
84298;DHT22;74466;51.188;3.242;2024-03-23T05:33:20;7.80;83.80
84298;DHT22;74466;51.188;3.242;2024-03-23T05:35:46;7.70;84.40
84298;DHT22;74466;51.188;3.242;2024-03-23T05:38:13;7.70;84.40
84298;DHT22;74466;51.188;3.242;2024-03-23T05:40:39;7.60;84.60
84298;DHT22;74466;51.188;3.242;2024-03-23T05:43:08;7.40;85.70
84298;DHT22;74466;51.188;3.242;2024-03-23T05:45:34;7.50;86.00
84298;DHT22;74466;51.188;3.242;2024-03-23T05:48:00;7.50;85.80
84298;DHT22;74466;51.188;3.242;2024-03-23T05:50:26;7.50;85.70
84298;DHT22;74466;51.188;3.242;2024-03-23T05:52:52;7.50;85.90
84298;DHT22;74466;51.188;3.242;2024-03-23T05:55:18;7.50;85.70
84298;DHT22;74466;51.188;3.242;2024-03-23T05:57:43;7.50;86.00
84298;DHT22;74466;51.188;3.242;2024-03-23T06:00:09;7.50;86.10
84298;DHT22;74466;51.188;3.242;2024-03-23T06:02:44;7.60;85.40
84298;DHT22;74466;51.188;3.242;2024-03-23T06:05:11;7.60;85.30
84298;DHT22;74466;51.188;3.242;2024-03-23T06:07:37;7.70;86.00
84298;DHT22;74466;51.188;3.242;2024-03-23T06:10:03;7.70;85.80
84298;DHT22;74466;51.188;3.242;2024-03-23T06:12:29;7.70;85.10
84298;DHT22;74466;51.188;3.242;2024-03-23T06:14:54;7.70;85.70
84298;DHT22;74466;51.188;3.242;2024-03-23T06:17:20;7.70;84.50
84298;DHT22;74466;51.188;3.242;2024-03-23T06:19:46;7.70;84.90
84298;DHT22;74466;51.188;3.242;2024-03-23T06:22:12;7.70;84.60
84298;DHT22;74466;51.188;3.242;2024-03-23T06:24:37;7.80;85.40
84298;DHT22;74466;51.188;3.242;2024-03-23T06:27:03;7.80;85.30
84298;DHT22;74466;51.188;3.242;2024-03-23T06:29:30;7.90;84.50
84298;DHT22;74466;51.188;3.242;2024-03-23T06:31:55;8.00;83.70
84298;DHT22;74466;51.188;3.242;2024-03-23T06:34:21;7.90;83.60
84298;DHT22;74466;51.188;3.242;2024-03-23T06:36:48;8.00;83.60
84298;DHT22;74466;51.188;3.242;2024-03-23T06:39:15;8.00;83.60
84298;DHT22;74466;51.188;3.242;2024-03-23T06:41:52;8.10;82.90
84298;DHT22;74466;51.188;3.242;2024-03-23T06:44:18;8.20;82.40
84298;DHT22;74466;51.188;3.242;2024-03-23T06:46:44;8.30;81.80
84298;DHT22;74466;51.188;3.242;2024-03-23T06:49:10;8.30;81.10
84298;DHT22;74466;51.188;3.242;2024-03-23T06:51:36;8.30;81.40
84298;DHT22;74466;51.188;3.242;2024-03-23T06:54:03;8.40;81.50
84298;DHT22;74466;51.188;3.242;2024-03-23T06:56:30;8.40;81.50
84298;DHT22;74466;51.188;3.242;2024-03-23T06:58:56;8.40;79.20
84298;DHT22;74466;51.188;3.242;2024-03-23T07:01:22;8.30;78.20
84298;DHT22;74466;51.188;3.242;2024-03-23T07:03:48;8.30;79.80
84298;DHT22;74466;51.188;3.242;2024-03-23T07:06:14;8.20;77.40
84298;DHT22;74466;51.188;3.242;2024-03-23T07:08:39;8.10;78.10
84298;DHT22;74466;51.188;3.242;2024-03-23T07:11:05;8.00;78.20
84298;DHT22;74466;51.188;3.242;2024-03-23T07:13:31;8.00;78.20
84298;DHT22;74466;51.188;3.242;2024-03-23T07:15:56;8.10;79.60
84298;DHT22;74466;51.188;3.242;2024-03-23T07:18:23;8.20;78.30
84298;DHT22;74466;51.188;3.242;2024-03-23T07:20:55;8.30;78.00
84298;DHT22;74466;51.188;3.242;2024-03-23T07:23:24;8.40;78.00
84298;DHT22;74466;51.188;3.242;2024-03-23T07:26:01;8.50;77.20
84298;DHT22;74466;51.188;3.242;2024-03-23T07:28:27;8.60;76.70
84298;DHT22;74466;51.188;3.242;2024-03-23T07:33:30;8.80;76.70
84298;DHT22;74466;51.188;3.242;2024-03-23T07:35:55;8.90;75.90
84298;DHT22;74466;51.188;3.242;2024-03-23T07:38:21;9.00;76.60
84298;DHT22;74466;51.188;3.242;2024-03-23T07:40:47;9.10;75.70
84298;DHT22;74466;51.188;3.242;2024-03-23T07:43:15;9.30;74.10
84298;DHT22;74466;51.188;3.242;2024-03-23T07:45:41;9.20;75.40
84298;DHT22;74466;51.188;3.242;2024-03-23T07:48:06;9.20;74.70
84298;DHT22;74466;51.188;3.242;2024-03-23T07:50:32;9.20;75.20
84298;DHT22;74466;51.188;3.242;2024-03-23T07:52:58;9.30;75.00
84298;DHT22;74466;51.188;3.242;2024-03-23T07:55:23;9.40;76.10
84298;DHT22;74466;51.188;3.242;2024-03-23T07:57:51;9.30;77.30
84298;DHT22;74466;51.188;3.242;2024-03-23T08:00:17;9.00;78.60
84298;DHT22;74466;51.188;3.242;2024-03-23T08:02:42;8.70;81.00
84298;DHT22;74466;51.188;3.242;2024-03-23T08:05:08;8.60;83.30
84298;DHT22;74466;51.188;3.242;2024-03-23T08:07:34;8.40;82.80
84298;DHT22;74466;51.188;3.242;2024-03-23T08:10:00;8.40;83.80
84298;DHT22;74466;51.188;3.242;2024-03-23T08:12:28;8.30;84.20
84298;DHT22;74466;51.188;3.242;2024-03-23T08:14:54;8.50;84.10
84298;DHT22;74466;51.188;3.242;2024-03-23T08:17:20;8.70;85.40
84298;DHT22;74466;51.188;3.242;2024-03-23T08:19:45;9.20;83.40
84298;DHT22;74466;51.188;3.242;2024-03-23T08:22:11;9.50;83.60
84298;DHT22;74466;51.188;3.242;2024-03-23T08:24:36;9.90;81.80
84298;DHT22;74466;51.188;3.242;2024-03-23T08:27:02;9.80;77.80
84298;DHT22;74466;51.188;3.242;2024-03-23T08:29:30;9.60;78.40
84298;DHT22;74466;51.188;3.242;2024-03-23T08:31:55;9.30;78.60
84298;DHT22;74466;51.188;3.242;2024-03-23T08:34:21;9.20;79.00
84298;DHT22;74466;51.188;3.242;2024-03-23T08:36:47;9.40;79.40
84298;DHT22;74466;51.188;3.242;2024-03-23T08:39:12;9.50;79.00
84298;DHT22;74466;51.188;3.242;2024-03-23T08:41:38;9.60;78.00
84298;DHT22;74466;51.188;3.242;2024-03-23T08:44:04;9.70;78.60
84298;DHT22;74466;51.188;3.242;2024-03-23T08:46:30;9.70;77.00
84298;DHT22;74466;51.188;3.242;2024-03-23T08:48:55;9.70;76.60
84298;DHT22;74466;51.188;3.242;2024-03-23T08:51:21;9.60;78.50
84298;DHT22;74466;51.188;3.242;2024-03-23T08:53:46;9.90;80.10
84298;DHT22;74466;51.188;3.242;2024-03-23T08:56:12;9.80;76.20
84298;DHT22;74466;51.188;3.242;2024-03-23T08:58:38;9.70;76.90
84298;DHT22;74466;51.188;3.242;2024-03-23T09:01:09;9.70;75.70
84298;DHT22;74466;51.188;3.242;2024-03-23T09:03:35;9.70;76.00
84298;DHT22;74466;51.188;3.242;2024-03-23T09:06:12;9.70;76.10
84298;DHT22;74466;51.188;3.242;2024-03-23T09:08:38;9.60;76.30
84298;DHT22;74466;51.188;3.242;2024-03-23T09:11:07;9.70;76.80
84298;DHT22;74466;51.188;3.242;2024-03-23T09:13:33;9.80;75.50
84298;DHT22;74466;51.188;3.242;2024-03-23T09:15:59;9.90;75.60
84298;DHT22;74466;51.188;3.242;2024-03-23T09:18:25;10.00;75.00
84298;DHT22;74466;51.188;3.242;2024-03-23T09:20:51;10.20;73.60
84298;DHT22;74466;51.188;3.242;2024-03-23T09:23:16;10.20;73.20
84298;DHT22;74466;51.188;3.242;2024-03-23T09:25:42;10.00;71.90
84298;DHT22;74466;51.188;3.242;2024-03-23T09:28:08;10.10;73.60
84298;DHT22;74466;51.188;3.242;2024-03-23T09:30:34;10.10;73.00
84298;DHT22;74466;51.188;3.242;2024-03-23T09:33:00;10.00;72.90
84298;DHT22;74466;51.188;3.242;2024-03-23T09:35:28;10.10;72.00
84298;DHT22;74466;51.188;3.242;2024-03-23T09:37:53;10.10;72.50
84298;DHT22;74466;51.188;3.242;2024-03-23T09:40:20;9.90;73.10
84298;DHT22;74466;51.188;3.242;2024-03-23T09:42:52;10.00;72.80
84298;DHT22;74466;51.188;3.242;2024-03-23T09:45:21;10.20;73.10
84298;DHT22;74466;51.188;3.242;2024-03-23T09:47:48;10.00;72.30
84298;DHT22;74466;51.188;3.242;2024-03-23T09:50:14;10.20;71.60
84298;DHT22;74466;51.188;3.242;2024-03-23T09:52:40;10.10;70.50
84298;DHT22;74466;51.188;3.242;2024-03-23T09:55:09;9.80;72.20
84298;DHT22;74466;51.188;3.242;2024-03-23T09:57:35;9.90;74.20
84298;DHT22;74466;51.188;3.242;2024-03-23T10:00:02;10.30;73.60
84298;DHT22;74466;51.188;3.242;2024-03-23T10:02:28;10.40;71.60
84298;DHT22;74466;51.188;3.242;2024-03-23T10:04:54;10.30;69.90
84298;DHT22;74466;51.188;3.242;2024-03-23T10:07:20;10.10;71.40
84298;DHT22;74466;51.188;3.242;2024-03-23T10:09:47;10.20;72.00
84298;DHT22;74466;51.188;3.242;2024-03-23T10:12:16;10.30;70.60
84298;DHT22;74466;51.188;3.242;2024-03-23T10:14:43;10.30;71.80
84298;DHT22;74466;51.188;3.242;2024-03-23T10:19:48;10.10;71.80
84298;DHT22;74466;51.188;3.242;2024-03-23T10:22:23;10.00;70.90
84298;DHT22;74466;51.188;3.242;2024-03-23T10:24:52;9.90;71.50
84298;DHT22;74466;51.188;3.242;2024-03-23T10:27:20;9.80;73.60
84298;DHT22;74466;51.188;3.242;2024-03-23T10:29:49;9.50;71.40
84298;DHT22;74466;51.188;3.242;2024-03-23T10:32:16;9.60;72.20
84298;DHT22;74466;51.188;3.242;2024-03-23T10:34:43;9.90;73.60
84298;DHT22;74466;51.188;3.242;2024-03-23T10:37:09;10.30;71.70
84298;DHT22;74466;51.188;3.242;2024-03-23T10:39:40;10.30;69.60
84298;DHT22;74466;51.188;3.242;2024-03-23T10:42:09;10.20;70.10
84298;DHT22;74466;51.188;3.242;2024-03-23T10:44:36;10.10;70.90
84298;DHT22;74466;51.188;3.242;2024-03-23T10:47:04;10.20;69.60
84298;DHT22;74466;51.188;3.242;2024-03-23T10:49:32;10.20;70.30
84298;DHT22;74466;51.188;3.242;2024-03-23T10:52:04;10.00;69.30
84298;DHT22;74466;51.188;3.242;2024-03-23T10:54:31;9.90;68.60
84298;DHT22;74466;51.188;3.242;2024-03-23T10:59:29;10.00;72.50
84298;DHT22;74466;51.188;3.242;2024-03-23T11:04:36;9.90;71.40
84298;DHT22;74466;51.188;3.242;2024-03-23T11:07:02;9.80;70.90
84298;DHT22;74466;51.188;3.242;2024-03-23T11:09:41;9.70;70.90
84298;DHT22;74466;51.188;3.242;2024-03-23T11:12:30;9.90;70.80
84298;DHT22;74466;51.188;3.242;2024-03-23T11:17:27;10.70;71.20
84298;DHT22;74466;51.188;3.242;2024-03-23T11:20:13;10.70;67.90
84298;DHT22;74466;51.188;3.242;2024-03-23T11:22:45;10.60;66.60
84298;DHT22;74466;51.188;3.242;2024-03-23T11:25:16;10.50;68.30
84298;DHT22;74466;51.188;3.242;2024-03-23T11:27:43;10.60;68.60
84298;DHT22;74466;51.188;3.242;2024-03-23T11:32:49;11.10;69.30
84298;DHT22;74466;51.188;3.242;2024-03-23T11:38:13;11.50;68.80
84298;DHT22;74466;51.188;3.242;2024-03-23T11:40:43;11.70;67.70
84298;DHT22;74466;51.188;3.242;2024-03-23T11:43:19;11.90;65.10
84298;DHT22;74466;51.188;3.242;2024-03-23T11:45:51;11.80;65.90
84298;DHT22;74466;51.188;3.242;2024-03-23T11:48:19;11.20;65.20
84298;DHT22;74466;51.188;3.242;2024-03-23T11:50:47;10.90;66.80
84298;DHT22;74466;51.188;3.242;2024-03-23T11:55:44;10.70;69.00
84298;DHT22;74466;51.188;3.242;2024-03-23T11:58:11;10.60;67.30
84298;DHT22;74466;51.188;3.242;2024-03-23T12:00:38;10.30;68.60
84298;DHT22;74466;51.188;3.242;2024-03-23T12:03:04;10.00;70.40
84298;DHT22;74466;51.188;3.242;2024-03-23T12:05:31;10.00;70.60
84298;DHT22;74466;51.188;3.242;2024-03-23T12:08:19;9.60;72.90
84298;DHT22;74466;51.188;3.242;2024-03-23T12:11:12;9.20;75.00
84298;DHT22;74466;51.188;3.242;2024-03-23T12:13:40;8.80;78.60
84298;DHT22;74466;51.188;3.242;2024-03-23T12:16:20;8.50;79.40
84298;DHT22;74466;51.188;3.242;2024-03-23T12:18:50;8.20;81.00
84298;DHT22;74466;51.188;3.242;2024-03-23T12:21:16;8.00;79.50
84298;DHT22;74466;51.188;3.242;2024-03-23T12:23:43;8.00;80.10
84298;DHT22;74466;51.188;3.242;2024-03-23T12:26:10;8.00;79.40
84298;DHT22;74466;51.188;3.242;2024-03-23T12:28:37;8.20;80.60
84298;DHT22;74466;51.188;3.242;2024-03-23T12:31:03;8.70;81.70
84298;DHT22;74466;51.188;3.242;2024-03-23T12:33:28;9.00;80.70
84298;DHT22;74466;51.188;3.242;2024-03-23T12:35:54;9.30;79.40
84298;DHT22;74466;51.188;3.242;2024-03-23T12:38:20;9.70;77.70
84298;DHT22;74466;51.188;3.242;2024-03-23T12:40:49;10.10;75.80
84298;DHT22;74466;51.188;3.242;2024-03-23T12:43:16;10.20;74.10
84298;DHT22;74466;51.188;3.242;2024-03-23T12:45:49;10.20;72.50
84298;DHT22;74466;51.188;3.242;2024-03-23T12:48:15;10.10;73.50
84298;DHT22;74466;51.188;3.242;2024-03-23T12:50:41;10.20;74.80
84298;DHT22;74466;51.188;3.242;2024-03-23T12:53:07;10.30;71.90
84298;DHT22;74466;51.188;3.242;2024-03-23T12:55:35;10.20;70.40
84298;DHT22;74466;51.188;3.242;2024-03-23T12:58:01;10.20;70.10
84298;DHT22;74466;51.188;3.242;2024-03-23T13:00:27;10.20;69.80
84298;DHT22;74466;51.188;3.242;2024-03-23T13:02:52;10.20;69.90
84298;DHT22;74466;51.188;3.242;2024-03-23T13:05:18;10.40;69.80
84298;DHT22;74466;51.188;3.242;2024-03-23T13:07:44;10.40;71.10
84298;DHT22;74466;51.188;3.242;2024-03-23T13:10:09;10.60;69.50
84298;DHT22;74466;51.188;3.242;2024-03-23T13:12:35;10.80;69.60
84298;DHT22;74466;51.188;3.242;2024-03-23T13:15:01;10.80;67.50
84298;DHT22;74466;51.188;3.242;2024-03-23T13:17:27;10.90;66.30
84298;DHT22;74466;51.188;3.242;2024-03-23T13:19:54;10.90;65.50
84298;DHT22;74466;51.188;3.242;2024-03-23T13:22:21;11.10;66.60
84298;DHT22;74466;51.188;3.242;2024-03-23T13:24:47;11.30;64.80
84298;DHT22;74466;51.188;3.242;2024-03-23T13:27:12;11.30;66.20
84298;DHT22;74466;51.188;3.242;2024-03-23T13:29:38;11.20;64.00
84298;DHT22;74466;51.188;3.242;2024-03-23T13:32:04;11.20;65.50
84298;DHT22;74466;51.188;3.242;2024-03-23T13:34:30;11.10;65.80
84298;DHT22;74466;51.188;3.242;2024-03-23T13:36:56;11.10;64.10
84298;DHT22;74466;51.188;3.242;2024-03-23T13:39:25;11.20;62.00
84298;DHT22;74466;51.188;3.242;2024-03-23T13:41:52;11.00;63.30
84298;DHT22;74466;51.188;3.242;2024-03-23T13:44:18;11.00;63.80
84298;DHT22;74466;51.188;3.242;2024-03-23T13:46:44;10.90;62.40
84298;DHT22;74466;51.188;3.242;2024-03-23T13:49:35;10.90;64.50
84298;DHT22;74466;51.188;3.242;2024-03-23T13:52:01;10.90;63.10
84298;DHT22;74466;51.188;3.242;2024-03-23T13:54:27;10.90;65.50
84298;DHT22;74466;51.188;3.242;2024-03-23T13:56:55;10.80;61.10
84298;DHT22;74466;51.188;3.242;2024-03-23T13:59:21;10.80;64.40
84298;DHT22;74466;51.188;3.242;2024-03-23T14:01:48;10.80;63.70
84298;DHT22;74466;51.188;3.242;2024-03-23T14:04:14;10.70;65.20
84298;DHT22;74466;51.188;3.242;2024-03-23T14:06:44;10.70;63.90
84298;DHT22;74466;51.188;3.242;2024-03-23T14:09:13;10.80;63.80
84298;DHT22;74466;51.188;3.242;2024-03-23T14:11:40;10.70;63.10
84298;DHT22;74466;51.188;3.242;2024-03-23T14:14:07;10.50;62.40
84298;DHT22;74466;51.188;3.242;2024-03-23T14:16:33;10.50;65.00
84298;DHT22;74466;51.188;3.242;2024-03-23T14:18:59;10.60;65.50
84298;DHT22;74466;51.188;3.242;2024-03-23T14:21:25;10.40;65.90
84298;DHT22;74466;51.188;3.242;2024-03-23T14:23:51;10.20;67.20
84298;DHT22;74466;51.188;3.242;2024-03-23T14:26:16;10.10;68.70
84298;DHT22;74466;51.188;3.242;2024-03-23T14:28:45;9.80;67.60
84298;DHT22;74466;51.188;3.242;2024-03-23T14:31:11;9.40;69.50
84298;DHT22;74466;51.188;3.242;2024-03-23T14:33:37;9.20;72.40
84298;DHT22;74466;51.188;3.242;2024-03-23T14:36:04;9.30;71.20
84298;DHT22;74466;51.188;3.242;2024-03-23T14:38:30;9.30;72.20
84298;DHT22;74466;51.188;3.242;2024-03-23T14:41:00;9.50;75.70
84298;DHT22;74466;51.188;3.242;2024-03-23T14:43:26;9.80;72.80
84298;DHT22;74466;51.188;3.242;2024-03-23T14:46:11;9.90;72.40
84298;DHT22;74466;51.188;3.242;2024-03-23T14:48:38;10.00;73.40
84298;DHT22;74466;51.188;3.242;2024-03-23T14:51:04;10.00;72.20
84298;DHT22;74466;51.188;3.242;2024-03-23T14:53:33;9.90;72.20
84298;DHT22;74466;51.188;3.242;2024-03-23T14:56:00;9.90;72.10
84298;DHT22;74466;51.188;3.242;2024-03-23T14:58:26;9.80;73.00
84298;DHT22;74466;51.188;3.242;2024-03-23T15:00:52;9.80;71.70
84298;DHT22;74466;51.188;3.242;2024-03-23T15:03:18;9.80;72.10
84298;DHT22;74466;51.188;3.242;2024-03-23T15:05:54;9.80;69.60
84298;DHT22;74466;51.188;3.242;2024-03-23T15:08:20;9.90;69.60
84298;DHT22;74466;51.188;3.242;2024-03-23T15:10:46;9.90;69.90
84298;DHT22;74466;51.188;3.242;2024-03-23T15:13:12;9.90;69.70
84298;DHT22;74466;51.188;3.242;2024-03-23T15:15:42;9.90;70.50
84298;DHT22;74466;51.188;3.242;2024-03-23T15:18:12;9.90;71.30
84298;DHT22;74466;51.188;3.242;2024-03-23T15:20:38;9.70;69.30
84298;DHT22;74466;51.188;3.242;2024-03-23T15:23:04;9.60;69.70
84298;DHT22;74466;51.188;3.242;2024-03-23T15:25:30;9.50;69.60
84298;DHT22;74466;51.188;3.242;2024-03-23T15:27:57;9.50;71.00
84298;DHT22;74466;51.188;3.242;2024-03-23T15:30:24;9.30;73.50
84298;DHT22;74466;51.188;3.242;2024-03-23T15:32:50;9.30;72.30
84298;DHT22;74466;51.188;3.242;2024-03-23T15:35:16;9.10;67.00
84298;DHT22;74466;51.188;3.242;2024-03-23T15:37:42;9.10;70.50
84298;DHT22;74466;51.188;3.242;2024-03-23T15:40:09;9.00;71.70
84298;DHT22;74466;51.188;3.242;2024-03-23T15:42:35;9.00;71.80
84298;DHT22;74466;51.188;3.242;2024-03-23T15:45:01;9.10;72.20
84298;DHT22;74466;51.188;3.242;2024-03-23T15:47:29;9.00;73.90
84298;DHT22;74466;51.188;3.242;2024-03-23T15:49:54;8.80;75.80
84298;DHT22;74466;51.188;3.242;2024-03-23T15:52:21;8.70;75.30
84298;DHT22;74466;51.188;3.242;2024-03-23T15:54:47;8.70;75.90
84298;DHT22;74466;51.188;3.242;2024-03-23T15:57:12;8.60;77.10
84298;DHT22;74466;51.188;3.242;2024-03-23T15:59:41;8.70;77.30
84298;DHT22;74466;51.188;3.242;2024-03-23T16:02:07;8.60;76.60
84298;DHT22;74466;51.188;3.242;2024-03-23T16:04:32;8.60;77.30
84298;DHT22;74466;51.188;3.242;2024-03-23T16:06:58;8.70;76.30
84298;DHT22;74466;51.188;3.242;2024-03-23T16:09:24;8.70;74.50
84298;DHT22;74466;51.188;3.242;2024-03-23T16:11:49;8.70;76.00
84298;DHT22;74466;51.188;3.242;2024-03-23T16:14:15;8.80;75.80
84298;DHT22;74466;51.188;3.242;2024-03-23T16:16:41;8.70;71.50
84298;DHT22;74466;51.188;3.242;2024-03-23T16:19:06;8.70;70.90
84298;DHT22;74466;51.188;3.242;2024-03-23T16:21:32;8.70;70.00
84298;DHT22;74466;51.188;3.242;2024-03-23T16:23:57;8.70;72.40
84298;DHT22;74466;51.188;3.242;2024-03-23T16:26:23;8.70;73.00
84298;DHT22;74466;51.188;3.242;2024-03-23T16:28:49;8.70;74.30
84298;DHT22;74466;51.188;3.242;2024-03-23T16:31:16;8.50;76.00
84298;DHT22;74466;51.188;3.242;2024-03-23T16:33:42;8.40;78.80
84298;DHT22;74466;51.188;3.242;2024-03-23T16:36:09;8.30;79.20
84298;DHT22;74466;51.188;3.242;2024-03-23T16:38:38;8.30;78.50
84298;DHT22;74466;51.188;3.242;2024-03-23T16:41:06;8.40;78.50
84298;DHT22;74466;51.188;3.242;2024-03-23T16:43:33;8.50;78.30
84298;DHT22;74466;51.188;3.242;2024-03-23T16:46:03;8.70;77.90
84298;DHT22;74466;51.188;3.242;2024-03-23T16:48:29;8.80;78.60
84298;DHT22;74466;51.188;3.242;2024-03-23T16:51:02;8.80;75.20
84298;DHT22;74466;51.188;3.242;2024-03-23T16:53:34;8.90;77.40